sensor_id;sensor_type;location;lat;lon;timestamp;temperature;humidity
63013;DHT22;62113;45.624;11.700;2023-04-24T00:00:54;18.50;68.80
63013;DHT22;62113;45.624;11.700;2023-04-24T00:03:22;18.60;68.70
63013;DHT22;62113;45.624;11.700;2023-04-24T00:05:48;18.60;68.70
63013;DHT22;62113;45.624;11.700;2023-04-24T00:08:14;18.60;68.80
63013;DHT22;62113;45.624;11.700;2023-04-24T00:10:40;18.50;68.70
63013;DHT22;62113;45.624;11.700;2023-04-24T00:13:06;18.50;68.70
63013;DHT22;62113;45.624;11.700;2023-04-24T00:15:31;18.50;68.60
63013;DHT22;62113;45.624;11.700;2023-04-24T00:17:57;18.50;68.60
63013;DHT22;62113;45.624;11.700;2023-04-24T00:20:23;18.50;68.70
63013;DHT22;62113;45.624;11.700;2023-04-24T00:22:48;18.50;68.40
63013;DHT22;62113;45.624;11.700;2023-04-24T00:25:14;18.50;68.30
63013;DHT22;62113;45.624;11.700;2023-04-24T00:27:39;18.50;68.30
63013;DHT22;62113;45.624;11.700;2023-04-24T00:30:06;18.50;68.20
63013;DHT22;62113;45.624;11.700;2023-04-24T00:32:31;18.60;68.20
63013;DHT22;62113;45.624;11.700;2023-04-24T00:34:57;18.60;68.10
63013;DHT22;62113;45.624;11.700;2023-04-24T00:37:22;18.60;68.00
63013;DHT22;62113;45.624;11.700;2023-04-24T00:39:48;18.70;67.90
63013;DHT22;62113;45.624;11.700;2023-04-24T00:42:14;18.70;67.80
63013;DHT22;62113;45.624;11.700;2023-04-24T00:44:40;18.70;67.70
63013;DHT22;62113;45.624;11.700;2023-04-24T00:47:06;18.70;67.60
63013;DHT22;62113;45.624;11.700;2023-04-24T00:49:32;18.70;67.50
63013;DHT22;62113;45.624;11.700;2023-04-24T00:51:58;18.70;67.40
63013;DHT22;62113;45.624;11.700;2023-04-24T00:54:24;18.80;67.30
63013;DHT22;62113;45.624;11.700;2023-04-24T00:56:50;18.80;67.20
63013;DHT22;62113;45.624;11.700;2023-04-24T00:59:17;18.80;67.10
63013;DHT22;62113;45.624;11.700;2023-04-24T01:01:44;18.80;67.00
63013;DHT22;62113;45.624;11.700;2023-04-24T01:04:11;18.80;66.90
63013;DHT22;62113;45.624;11.700;2023-04-24T01:06:39;18.80;66.80
63013;DHT22;62113;45.624;11.700;2023-04-24T01:09:05;18.90;66.80
63013;DHT22;62113;45.624;11.700;2023-04-24T01:11:31;18.80;66.70
63013;DHT22;62113;45.624;11.700;2023-04-24T01:13:57;18.80;66.60
63013;DHT22;62113;45.624;11.700;2023-04-24T01:16:22;18.90;66.50
63013;DHT22;62113;45.624;11.700;2023-04-24T01:18:48;18.90;66.40
63013;DHT22;62113;45.624;11.700;2023-04-24T01:21:15;18.90;66.40
63013;DHT22;62113;45.624;11.700;2023-04-24T01:23:47;18.80;66.20
63013;DHT22;62113;45.624;11.700;2023-04-24T01:26:15;18.80;66.20
63013;DHT22;62113;45.624;11.700;2023-04-24T01:28:41;18.80;66.10
63013;DHT22;62113;45.624;11.700;2023-04-24T01:31:07;18.80;66.00
63013;DHT22;62113;45.624;11.700;2023-04-24T01:33:32;18.80;65.90
63013;DHT22;62113;45.624;11.700;2023-04-24T01:35:58;18.70;65.80
63013;DHT22;62113;45.624;11.700;2023-04-24T01:38:25;18.70;65.80
63013;DHT22;62113;45.624;11.700;2023-04-24T01:40:51;18.70;65.80
63013;DHT22;62113;45.624;11.700;2023-04-24T01:43:17;18.70;65.70
63013;DHT22;62113;45.624;11.700;2023-04-24T01:45:43;18.70;65.40
63013;DHT22;62113;45.624;11.700;2023-04-24T01:48:09;18.70;65.30
63013;DHT22;62113;45.624;11.700;2023-04-24T01:50:35;18.70;65.10
63013;DHT22;62113;45.624;11.700;2023-04-24T01:53:00;18.60;65.00
63013;DHT22;62113;45.624;11.700;2023-04-24T01:55:26;18.60;64.80
63013;DHT22;62113;45.624;11.700;2023-04-24T01:57:54;18.60;64.70
63013;DHT22;62113;45.624;11.700;2023-04-24T02:00:20;18.60;64.60
63013;DHT22;62113;45.624;11.700;2023-04-24T02:02:46;18.50;64.70
63013;DHT22;62113;45.624;11.700;2023-04-24T02:05:12;18.50;64.50
63013;DHT22;62113;45.624;11.700;2023-04-24T02:07:37;18.60;64.50
63013;DHT22;62113;45.624;11.700;2023-04-24T02:10:03;18.50;64.50
63013;DHT22;62113;45.624;11.700;2023-04-24T02:12:29;18.60;64.50
63013;DHT22;62113;45.624;11.700;2023-04-24T02:14:55;18.60;64.10
63013;DHT22;62113;45.624;11.700;2023-04-24T02:17:21;18.50;64.10
63013;DHT22;62113;45.624;11.700;2023-04-24T02:19:46;18.50;64.10
63013;DHT22;62113;45.624;11.700;2023-04-24T02:22:12;18.60;64.10
63013;DHT22;62113;45.624;11.700;2023-04-24T02:24:38;18.50;64.00
63013;DHT22;62113;45.624;11.700;2023-04-24T02:27:04;18.60;64.00
63013;DHT22;62113;45.624;11.700;2023-04-24T02:29:30;18.60;64.00
63013;DHT22;62113;45.624;11.700;2023-04-24T02:31:56;18.70;63.90
63013;DHT22;62113;45.624;11.700;2023-04-24T02:34:22;18.70;63.90
63013;DHT22;62113;45.624;11.700;2023-04-24T02:36:48;18.60;63.80
63013;DHT22;62113;45.624;11.700;2023-04-24T02:39:14;18.70;63.40
63013;DHT22;62113;45.624;11.700;2023-04-24T02:41:42;18.70;63.40
63013;DHT22;62113;45.624;11.700;2023-04-24T02:44:07;18.60;63.00
63013;DHT22;62113;45.624;11.700;2023-04-24T02:46:33;18.60;62.70
63013;DHT22;62113;45.624;11.700;2023-04-24T02:48:59;18.60;62.60
63013;DHT22;62113;45.624;11.700;2023-04-24T02:51:24;18.60;62.80
63013;DHT22;62113;45.624;11.700;2023-04-24T02:53:50;18.50;62.70
63013;DHT22;62113;45.624;11.700;2023-04-24T02:56:16;18.50;62.50
63013;DHT22;62113;45.624;11.700;2023-04-24T02:58:41;18.50;62.30
63013;DHT22;62113;45.624;11.700;2023-04-24T03:01:07;18.40;62.10
63013;DHT22;62113;45.624;11.700;2023-04-24T03:03:35;18.40;62.10
63013;DHT22;62113;45.624;11.700;2023-04-24T03:06:01;18.30;62.10
63013;DHT22;62113;45.624;11.700;2023-04-24T03:08:27;18.30;62.20
63013;DHT22;62113;45.624;11.700;2023-04-24T03:10:52;18.20;62.20
63013;DHT22;62113;45.624;11.700;2023-04-24T03:13:18;18.20;62.10
63013;DHT22;62113;45.624;11.700;2023-04-24T03:15:44;18.20;62.30
63013;DHT22;62113;45.624;11.700;2023-04-24T03:18:10;18.20;62.40
63013;DHT22;62113;45.624;11.700;2023-04-24T03:20:36;18.20;62.50
63013;DHT22;62113;45.624;11.700;2023-04-24T03:23:02;18.20;62.50
63013;DHT22;62113;45.624;11.700;2023-04-24T03:25:28;18.30;62.30
63013;DHT22;62113;45.624;11.700;2023-04-24T03:27:53;18.30;62.10
63013;DHT22;62113;45.624;11.700;2023-04-24T03:30:20;18.20;61.00
63013;DHT22;62113;45.624;11.700;2023-04-24T03:32:45;18.20;61.00
63013;DHT22;62113;45.624;11.700;2023-04-24T03:35:11;18.20;60.80
63013;DHT22;62113;45.624;11.700;2023-04-24T03:37:37;18.20;61.10
63013;DHT22;62113;45.624;11.700;2023-04-24T03:40:02;18.20;61.10
63013;DHT22;62113;45.624;11.700;2023-04-24T03:42:28;18.20;61.00
63013;DHT22;62113;45.624;11.700;2023-04-24T03:44:54;18.20;61.00
63013;DHT22;62113;45.624;11.700;2023-04-24T03:47:19;18.20;61.00
63013;DHT22;62113;45.624;11.700;2023-04-24T03:49:45;18.20;61.20
63013;DHT22;62113;45.624;11.700;2023-04-24T03:52:11;18.20;61.30
63013;DHT22;62113;45.624;11.700;2023-04-24T03:54:36;18.20;61.40
63013;DHT22;62113;45.624;11.700;2023-04-24T03:57:02;18.10;61.70
63013;DHT22;62113;45.624;11.700;2023-04-24T03:59:28;18.10;61.80
63013;DHT22;62113;45.624;11.700;2023-04-24T04:01:54;18.10;62.00
63013;DHT22;62113;45.624;11.700;2023-04-24T04:04:20;18.10;62.20
63013;DHT22;62113;45.624;11.700;2023-04-24T04:06:45;18.10;62.50
63013;DHT22;62113;45.624;11.700;2023-04-24T04:09:12;18.10;62.40
63013;DHT22;62113;45.624;11.700;2023-04-24T04:11:37;18.00;62.90
63013;DHT22;62113;45.624;11.700;2023-04-24T04:14:03;18.00;62.70
63013;DHT22;62113;45.624;11.700;2023-04-24T04:16:29;18.00;63.10
63013;DHT22;62113;45.624;11.700;2023-04-24T04:18:54;18.00;63.20
63013;DHT22;62113;45.624;11.700;2023-04-24T04:21:20;17.90;63.40
63013;DHT22;62113;45.624;11.700;2023-04-24T04:23:46;17.90;63.60
63013;DHT22;62113;45.624;11.700;2023-04-24T04:26:12;17.80;64.00
63013;DHT22;62113;45.624;11.700;2023-04-24T04:28:38;17.80;64.40
63013;DHT22;62113;45.624;11.700;2023-04-24T04:31:05;17.80;64.40
63013;DHT22;62113;45.624;11.700;2023-04-24T04:33:30;17.80;64.50
63013;DHT22;62113;45.624;11.700;2023-04-24T04:35:57;17.80;64.70
63013;DHT22;62113;45.624;11.700;2023-04-24T04:38:23;17.90;65.00
63013;DHT22;62113;45.624;11.700;2023-04-24T04:40:50;17.90;65.30
63013;DHT22;62113;45.624;11.700;2023-04-24T04:43:15;18.00;65.60
63013;DHT22;62113;45.624;11.700;2023-04-24T04:45:41;17.90;66.50
63013;DHT22;62113;45.624;11.700;2023-04-24T04:48:09;17.80;66.80
63013;DHT22;62113;45.624;11.700;2023-04-24T04:50:37;17.70;67.50
63013;DHT22;62113;45.624;11.700;2023-04-24T04:53:03;17.30;68.40
63013;DHT22;62113;45.624;11.700;2023-04-24T04:55:28;17.20;68.70
63013;DHT22;62113;45.624;11.700;2023-04-24T04:57:54;17.10;69.20
63013;DHT22;62113;45.624;11.700;2023-04-24T05:00:21;17.00;69.80
63013;DHT22;62113;45.624;11.700;2023-04-24T05:02:49;16.90;69.90
63013;DHT22;62113;45.624;11.700;2023-04-24T05:05:15;16.90;70.10
63013;DHT22;62113;45.624;11.700;2023-04-24T05:07:42;17.00;70.30
63013;DHT22;62113;45.624;11.700;2023-04-24T05:10:08;17.00;70.10
63013;DHT22;62113;45.624;11.700;2023-04-24T05:12:33;17.10;70.40
63013;DHT22;62113;45.624;11.700;2023-04-24T05:14:59;17.10;70.30
63013;DHT22;62113;45.624;11.700;2023-04-24T05:17:25;17.20;70.30
63013;DHT22;62113;45.624;11.700;2023-04-24T05:19:51;17.20;70.20
63013;DHT22;62113;45.624;11.700;2023-04-24T05:22:16;17.20;70.00
63013;DHT22;62113;45.624;11.700;2023-04-24T05:24:43;17.20;69.90
63013;DHT22;62113;45.624;11.700;2023-04-24T05:27:10;17.30;70.00
63013;DHT22;62113;45.624;11.700;2023-04-24T05:29:35;17.30;69.90
63013;DHT22;62113;45.624;11.700;2023-04-24T05:32:01;17.40;69.80
63013;DHT22;62113;45.624;11.700;2023-04-24T05:34:27;17.40;69.70
63013;DHT22;62113;45.624;11.700;2023-04-24T05:36:52;17.40;69.70
63013;DHT22;62113;45.624;11.700;2023-04-24T05:39:18;17.40;69.80
63013;DHT22;62113;45.624;11.700;2023-04-24T05:41:45;17.50;69.60
63013;DHT22;62113;45.624;11.700;2023-04-24T05:44:10;17.50;69.50
63013;DHT22;62113;45.624;11.700;2023-04-24T05:46:36;17.50;69.40
63013;DHT22;62113;45.624;11.700;2023-04-24T05:49:02;17.60;69.40
63013;DHT22;62113;45.624;11.700;2023-04-24T05:51:28;17.60;69.30
63013;DHT22;62113;45.624;11.700;2023-04-24T05:53:54;17.60;69.40
63013;DHT22;62113;45.624;11.700;2023-04-24T05:56:20;17.50;69.40
63013;DHT22;62113;45.624;11.700;2023-04-24T05:58:46;17.50;69.70
63013;DHT22;62113;45.624;11.700;2023-04-24T06:01:12;17.50;69.80
63013;DHT22;62113;45.624;11.700;2023-04-24T06:03:40;17.50;69.80
63013;DHT22;62113;45.624;11.700;2023-04-24T06:06:07;17.50;69.80
63013;DHT22;62113;45.624;11.700;2023-04-24T06:08:33;17.50;69.80
63013;DHT22;62113;45.624;11.700;2023-04-24T06:10:59;17.40;69.80
63013;DHT22;62113;45.624;11.700;2023-04-24T06:13:24;17.50;69.70
63013;DHT22;62113;45.624;11.700;2023-04-24T06:15:50;17.50;69.70
63013;DHT22;62113;45.624;11.700;2023-04-24T06:18:16;17.50;69.60
63013;DHT22;62113;45.624;11.700;2023-04-24T06:20:42;17.50;69.70
63013;DHT22;62113;45.624;11.700;2023-04-24T06:23:07;17.50;69.70
63013;DHT22;62113;45.624;11.700;2023-04-24T06:25:33;17.50;69.60
63013;DHT22;62113;45.624;11.700;2023-04-24T06:27:59;17.50;69.60
63013;DHT22;62113;45.624;11.700;2023-04-24T06:30:24;17.50;69.60
63013;DHT22;62113;45.624;11.700;2023-04-24T06:32:50;17.50;69.60
63013;DHT22;62113;45.624;11.700;2023-04-24T06:35:16;17.50;69.80
63013;DHT22;62113;45.624;11.700;2023-04-24T06:37:42;17.50;69.60
63013;DHT22;62113;45.624;11.700;2023-04-24T06:40:08;17.50;69.60
63013;DHT22;62113;45.624;11.700;2023-04-24T06:42:35;17.50;69.80
63013;DHT22;62113;45.624;11.700;2023-04-24T06:45:01;17.50;69.70
63013;DHT22;62113;45.624;11.700;2023-04-24T06:47:27;17.40;69.80
63013;DHT22;62113;45.624;11.700;2023-04-24T06:49:53;17.50;69.70
63013;DHT22;62113;45.624;11.700;2023-04-24T06:52:19;17.40;69.70
63013;DHT22;62113;45.624;11.700;2023-04-24T06:54:45;17.40;69.70
63013;DHT22;62113;45.624;11.700;2023-04-24T06:57:10;17.30;69.50
63013;DHT22;62113;45.624;11.700;2023-04-24T06:59:37;17.40;69.40
63013;DHT22;62113;45.624;11.700;2023-04-24T07:02:02;17.40;69.20
63013;DHT22;62113;45.624;11.700;2023-04-24T07:04:29;17.40;69.10
63013;DHT22;62113;45.624;11.700;2023-04-24T07:06:54;17.40;69.00
63013;DHT22;62113;45.624;11.700;2023-04-24T07:09:21;17.40;68.80
63013;DHT22;62113;45.624;11.700;2023-04-24T07:11:47;17.40;68.70
63013;DHT22;62113;45.624;11.700;2023-04-24T07:14:13;17.40;68.70
63013;DHT22;62113;45.624;11.700;2023-04-24T07:16:39;17.40;68.70
63013;DHT22;62113;45.624;11.700;2023-04-24T07:19:05;17.50;68.50
63013;DHT22;62113;45.624;11.700;2023-04-24T07:21:30;17.50;68.40
63013;DHT22;62113;45.624;11.700;2023-04-24T07:23:57;17.50;68.30
63013;DHT22;62113;45.624;11.700;2023-04-24T07:26:23;17.50;68.20
63013;DHT22;62113;45.624;11.700;2023-04-24T07:28:49;17.40;68.30
63013;DHT22;62113;45.624;11.700;2023-04-24T07:31:14;17.40;68.50
63013;DHT22;62113;45.624;11.700;2023-04-24T07:33:40;17.40;68.70
63013;DHT22;62113;45.624;11.700;2023-04-24T07:36:06;17.30;68.60
63013;DHT22;62113;45.624;11.700;2023-04-24T07:38:32;17.30;68.60
63013;DHT22;62113;45.624;11.700;2023-04-24T07:40:57;17.30;68.40
63013;DHT22;62113;45.624;11.700;2023-04-24T07:43:23;17.30;67.70
63013;DHT22;62113;45.624;11.700;2023-04-24T07:45:50;17.30;66.60
63013;DHT22;62113;45.624;11.700;2023-04-24T07:48:16;17.20;65.90
63013;DHT22;62113;45.624;11.700;2023-04-24T07:50:43;17.20;65.80
63013;DHT22;62113;45.624;11.700;2023-04-24T07:53:09;17.20;66.00
63013;DHT22;62113;45.624;11.700;2023-04-24T07:55:34;17.20;66.10
63013;DHT22;62113;45.624;11.700;2023-04-24T07:58:00;17.20;66.30
63013;DHT22;62113;45.624;11.700;2023-04-24T08:00:25;17.30;66.50
63013;DHT22;62113;45.624;11.700;2023-04-24T08:02:51;17.30;66.70
63013;DHT22;62113;45.624;11.700;2023-04-24T08:05:17;17.40;66.50
63013;DHT22;62113;45.624;11.700;2023-04-24T08:07:43;17.50;66.30
63013;DHT22;62113;45.624;11.700;2023-04-24T08:10:10;17.60;65.80
63013;DHT22;62113;45.624;11.700;2023-04-24T08:12:37;17.70;65.40
63013;DHT22;62113;45.624;11.700;2023-04-24T08:15:03;17.80;65.20
63013;DHT22;62113;45.624;11.700;2023-04-24T08:17:29;18.00;65.10
63013;DHT22;62113;45.624;11.700;2023-04-24T08:19:54;18.20;64.70
63013;DHT22;62113;45.624;11.700;2023-04-24T08:22:27;18.20;63.20
63013;DHT22;62113;45.624;11.700;2023-04-24T08:24:52;18.20;62.30
63013;DHT22;62113;45.624;11.700;2023-04-24T08:27:18;18.10;62.40
63013;DHT22;62113;45.624;11.700;2023-04-24T08:29:44;18.20;62.70
63013;DHT22;62113;45.624;11.700;2023-04-24T08:32:09;18.20;61.80
63013;DHT22;62113;45.624;11.700;2023-04-24T08:34:35;18.30;61.70
63013;DHT22;62113;45.624;11.700;2023-04-24T08:37:01;18.30;62.30
63013;DHT22;62113;45.624;11.700;2023-04-24T08:39:26;18.20;62.70
63013;DHT22;62113;45.624;11.700;2023-04-24T08:41:52;18.30;63.00
63013;DHT22;62113;45.624;11.700;2023-04-24T08:44:19;18.40;62.20
63013;DHT22;62113;45.624;11.700;2023-04-24T08:46:45;18.40;62.60
63013;DHT22;62113;45.624;11.700;2023-04-24T08:49:13;18.40;62.90
63013;DHT22;62113;45.624;11.700;2023-04-24T08:51:41;18.50;62.90
63013;DHT22;62113;45.624;11.700;2023-04-24T08:54:07;18.50;62.90
63013;DHT22;62113;45.624;11.700;2023-04-24T08:56:34;18.60;62.40
63013;DHT22;62113;45.624;11.700;2023-04-24T08:59:04;18.70;62.80
63013;DHT22;62113;45.624;11.700;2023-04-24T09:01:29;18.80;62.50
63013;DHT22;62113;45.624;11.700;2023-04-24T09:03:57;19.00;62.10
63013;DHT22;62113;45.624;11.700;2023-04-24T09:06:23;19.10;61.90
63013;DHT22;62113;45.624;11.700;2023-04-24T09:08:51;19.30;61.60
63013;DHT22;62113;45.624;11.700;2023-04-24T09:11:18;19.40;61.20
63013;DHT22;62113;45.624;11.700;2023-04-24T09:13:43;19.50;61.20
63013;DHT22;62113;45.624;11.700;2023-04-24T09:16:11;19.70;61.10
63013;DHT22;62113;45.624;11.700;2023-04-24T09:18:36;19.80;60.60
63013;DHT22;62113;45.624;11.700;2023-04-24T09:21:10;20.00;60.20
63013;DHT22;62113;45.624;11.700;2023-04-24T09:23:36;20.20;59.80
63013;DHT22;62113;45.624;11.700;2023-04-24T09:26:02;20.30;58.90
63013;DHT22;62113;45.624;11.700;2023-04-24T09:28:37;20.40;58.10
63013;DHT22;62113;45.624;11.700;2023-04-24T09:31:13;20.50;57.90
63013;DHT22;62113;45.624;11.700;2023-04-24T09:33:57;20.60;55.80
63013;DHT22;62113;45.624;11.700;2023-04-24T09:36:31;20.70;55.00
63013;DHT22;62113;45.624;11.700;2023-04-24T09:39:01;20.70;55.80
63013;DHT22;62113;45.624;11.700;2023-04-24T09:41:28;20.80;54.00
63013;DHT22;62113;45.624;11.700;2023-04-24T09:43:58;20.70;53.20
63013;DHT22;62113;45.624;11.700;2023-04-24T09:46:35;20.70;53.80
63013;DHT22;62113;45.624;11.700;2023-04-24T09:49:09;20.70;54.20
63013;DHT22;62113;45.624;11.700;2023-04-24T09:51:36;20.80;53.80
63013;DHT22;62113;45.624;11.700;2023-04-24T09:54:02;20.70;52.50
63013;DHT22;62113;45.624;11.700;2023-04-24T09:56:29;20.70;51.40
63013;DHT22;62113;45.624;11.700;2023-04-24T09:59:07;20.60;50.30
63013;DHT22;62113;45.624;11.700;2023-04-24T10:01:33;20.50;50.00
63013;DHT22;62113;45.624;11.700;2023-04-24T10:03:59;20.50;51.00
63013;DHT22;62113;45.624;11.700;2023-04-24T10:06:34;20.40;50.90
63013;DHT22;62113;45.624;11.700;2023-04-24T10:09:00;20.40;51.20
63013;DHT22;62113;45.624;11.700;2023-04-24T10:11:29;20.50;50.70
63013;DHT22;62113;45.624;11.700;2023-04-24T10:13:56;20.30;50.10
63013;DHT22;62113;45.624;11.700;2023-04-24T10:16:22;20.30;49.40
63013;DHT22;62113;45.624;11.700;2023-04-24T10:18:49;20.30;50.90
63013;DHT22;62113;45.624;11.700;2023-04-24T10:21:16;20.40;51.00
63013;DHT22;62113;45.624;11.700;2023-04-24T10:23:42;20.40;51.40
63013;DHT22;62113;45.624;11.700;2023-04-24T10:26:12;20.60;51.10
63013;DHT22;62113;45.624;11.700;2023-04-24T10:28:45;20.70;51.20
63013;DHT22;62113;45.624;11.700;2023-04-24T10:31:12;20.70;50.80
63013;DHT22;62113;45.624;11.700;2023-04-24T10:33:42;20.80;50.00
63013;DHT22;62113;45.624;11.700;2023-04-24T10:36:13;20.80;50.20
63013;DHT22;62113;45.624;11.700;2023-04-24T10:38:40;21.00;49.90
63013;DHT22;62113;45.624;11.700;2023-04-24T10:41:08;21.00;48.90
63013;DHT22;62113;45.624;11.700;2023-04-24T10:43:35;21.10;48.00
63013;DHT22;62113;45.624;11.700;2023-04-24T10:46:05;21.10;48.20
63013;DHT22;62113;45.624;11.700;2023-04-24T10:48:32;21.10;47.20
63013;DHT22;62113;45.624;11.700;2023-04-24T10:50:58;21.10;47.50
63013;DHT22;62113;45.624;11.700;2023-04-24T10:53:28;21.20;47.00
63013;DHT22;62113;45.624;11.700;2023-04-24T10:56:08;21.10;46.60
63013;DHT22;62113;45.624;11.700;2023-04-24T10:58:43;21.20;47.50
63013;DHT22;62113;45.624;11.700;2023-04-24T11:01:30;21.20;46.90
63013;DHT22;62113;45.624;11.700;2023-04-24T11:04:00;21.30;47.60
63013;DHT22;62113;45.624;11.700;2023-04-24T11:06:36;21.40;48.00
63013;DHT22;62113;45.624;11.700;2023-04-24T11:09:06;21.30;47.20
63013;DHT22;62113;45.624;11.700;2023-04-24T11:11:33;21.30;46.90
63013;DHT22;62113;45.624;11.700;2023-04-24T11:19:02;21.40;46.40
63013;DHT22;62113;45.624;11.700;2023-04-24T11:25:11;21.50;46.70
63013;DHT22;62113;45.624;11.700;2023-04-24T11:27:15;21.60;47.30
63013;DHT22;62113;45.624;11.700;2023-04-24T11:35:14;21.70;46.80
63013;DHT22;62113;45.624;11.700;2023-04-24T11:37:51;21.70;46.90
63013;DHT22;62113;45.624;11.700;2023-04-24T11:40:20;21.70;46.90
63013;DHT22;62113;45.624;11.700;2023-04-24T11:42:47;21.70;47.30
63013;DHT22;62113;45.624;11.700;2023-04-24T11:45:18;21.80;47.40
63013;DHT22;62113;45.624;11.700;2023-04-24T11:47:45;21.80;47.50
63013;DHT22;62113;45.624;11.700;2023-04-24T11:50:15;21.80;48.10
63013;DHT22;62113;45.624;11.700;2023-04-24T11:52:46;21.90;47.90
63013;DHT22;62113;45.624;11.700;2023-04-24T11:57:43;21.90;47.60
63013;DHT22;62113;45.624;11.700;2023-04-24T12:00:15;22.00;48.00
63013;DHT22;62113;45.624;11.700;2023-04-24T12:02:41;22.20;47.90
63013;DHT22;62113;45.624;11.700;2023-04-24T12:05:07;22.20;47.90
63013;DHT22;62113;45.624;11.700;2023-04-24T12:07:41;22.30;47.20
63013;DHT22;62113;45.624;11.700;2023-04-24T12:10:10;22.20;46.40
63013;DHT22;62113;45.624;11.700;2023-04-24T12:12:36;22.20;46.60
63013;DHT22;62113;45.624;11.700;2023-04-24T12:15:07;22.20;47.10
63013;DHT22;62113;45.624;11.700;2023-04-24T12:17:34;22.10;47.90
63013;DHT22;62113;45.624;11.700;2023-04-24T12:20:03;22.00;49.00
63013;DHT22;62113;45.624;11.700;2023-04-24T12:22:46;22.10;48.60
63013;DHT22;62113;45.624;11.700;2023-04-24T12:25:16;22.10;47.80
63013;DHT22;62113;45.624;11.700;2023-04-24T12:27:44;22.00;48.40
63013;DHT22;62113;45.624;11.700;2023-04-24T12:30:15;22.10;48.50
63013;DHT22;62113;45.624;11.700;2023-04-24T12:32:42;22.10;48.80
63013;DHT22;62113;45.624;11.700;2023-04-24T12:35:08;22.10;48.70
63013;DHT22;62113;45.624;11.700;2023-04-24T12:37:34;22.10;48.50
63013;DHT22;62113;45.624;11.700;2023-04-24T12:40:09;22.00;48.70
63013;DHT22;62113;45.624;11.700;2023-04-24T12:42:46;22.00;48.70
63013;DHT22;62113;45.624;11.700;2023-04-24T12:45:12;22.00;49.10
63013;DHT22;62113;45.624;11.700;2023-04-24T12:47:39;22.00;49.10
63013;DHT22;62113;45.624;11.700;2023-04-24T12:50:07;22.10;49.30
63013;DHT22;62113;45.624;11.700;2023-04-24T12:52:32;22.10;49.60
63013;DHT22;62113;45.624;11.700;2023-04-24T12:54:59;22.20;49.30
63013;DHT22;62113;45.624;11.700;2023-04-24T12:57:27;22.20;49.50
63013;DHT22;62113;45.624;11.700;2023-04-24T12:59:57;22.40;49.30
63013;DHT22;62113;45.624;11.700;2023-04-24T13:02:27;22.40;49.20
63013;DHT22;62113;45.624;11.700;2023-04-24T13:04:58;22.40;48.90
63013;DHT22;62113;45.624;11.700;2023-04-24T13:07:24;22.40;49.00
63013;DHT22;62113;45.624;11.700;2023-04-24T13:09:51;22.50;49.70
63013;DHT22;62113;45.624;11.700;2023-04-24T13:12:17;22.40;48.90
63013;DHT22;62113;45.624;11.700;2023-04-24T13:14:43;22.50;49.50
63013;DHT22;62113;45.624;11.700;2023-04-24T13:17:09;22.50;49.50
63013;DHT22;62113;45.624;11.700;2023-04-24T13:19:36;22.50;49.50
63013;DHT22;62113;45.624;11.700;2023-04-24T13:22:03;22.50;49.30
63013;DHT22;62113;45.624;11.700;2023-04-24T13:24:28;22.40;47.40
63013;DHT22;62113;45.624;11.700;2023-04-24T13:26:54;22.30;47.40
63013;DHT22;62113;45.624;11.700;2023-04-24T13:29:22;22.20;48.00
63013;DHT22;62113;45.624;11.700;2023-04-24T13:31:50;22.20;47.50
63013;DHT22;62113;45.624;11.700;2023-04-24T13:34:17;22.20;48.00
63013;DHT22;62113;45.624;11.700;2023-04-24T13:36:43;22.20;48.50
63013;DHT22;62113;45.624;11.700;2023-04-24T13:39:08;22.20;49.70
63013;DHT22;62113;45.624;11.700;2023-04-24T13:41:34;22.10;48.90
63013;DHT22;62113;45.624;11.700;2023-04-24T13:44:02;22.00;48.50
63013;DHT22;62113;45.624;11.700;2023-04-24T13:46:28;21.90;49.10
63013;DHT22;62113;45.624;11.700;2023-04-24T13:48:53;21.90;49.30
63013;DHT22;62113;45.624;11.700;2023-04-24T13:51:19;21.90;50.20
63013;DHT22;62113;45.624;11.700;2023-04-24T13:53:44;22.00;50.30
63013;DHT22;62113;45.624;11.700;2023-04-24T13:56:10;21.90;49.20
63013;DHT22;62113;45.624;11.700;2023-04-24T13:58:37;21.90;49.40
63013;DHT22;62113;45.624;11.700;2023-04-24T14:01:03;21.80;49.40
63013;DHT22;62113;45.624;11.700;2023-04-24T14:03:29;21.80;49.60
63013;DHT22;62113;45.624;11.700;2023-04-24T14:05:55;21.70;49.50
63013;DHT22;62113;45.624;11.700;2023-04-24T14:08:21;21.70;49.60
63013;DHT22;62113;45.624;11.700;2023-04-24T14:10:46;21.60;49.40
63013;DHT22;62113;45.624;11.700;2023-04-24T14:13:12;21.60;50.80
63013;DHT22;62113;45.624;11.700;2023-04-24T14:15:38;21.60;50.90
63013;DHT22;62113;45.624;11.700;2023-04-24T14:18:03;21.50;50.20
63013;DHT22;62113;45.624;11.700;2023-04-24T14:20:29;21.60;50.70
63013;DHT22;62113;45.624;11.700;2023-04-24T14:22:57;21.50;50.90
63013;DHT22;62113;45.624;11.700;2023-04-24T14:25:25;21.50;50.60
63013;DHT22;62113;45.624;11.700;2023-04-24T14:27:51;21.40;51.00
63013;DHT22;62113;45.624;11.700;2023-04-24T14:30:18;21.50;51.00
63013;DHT22;62113;45.624;11.700;2023-04-24T14:32:44;21.50;50.80
63013;DHT22;62113;45.624;11.700;2023-04-24T14:35:09;21.60;50.50
63013;DHT22;62113;45.624;11.700;2023-04-24T14:37:36;21.70;50.70
63013;DHT22;62113;45.624;11.700;2023-04-24T14:40:02;21.70;49.90
63013;DHT22;62113;45.624;11.700;2023-04-24T14:42:28;21.70;50.20
63013;DHT22;62113;45.624;11.700;2023-04-24T14:44:54;21.50;48.40
63013;DHT22;62113;45.624;11.700;2023-04-24T14:47:20;21.50;49.20
63013;DHT22;62113;45.624;11.700;2023-04-24T14:49:47;21.50;50.40
63013;DHT22;62113;45.624;11.700;2023-04-24T14:52:13;21.50;50.50
63013;DHT22;62113;45.624;11.700;2023-04-24T14:54:38;21.50;50.10
63013;DHT22;62113;45.624;11.700;2023-04-24T14:57:04;21.50;50.10
63013;DHT22;62113;45.624;11.700;2023-04-24T14:59:29;21.60;50.20
63013;DHT22;62113;45.624;11.700;2023-04-24T15:01:56;21.50;49.80
63013;DHT22;62113;45.624;11.700;2023-04-24T15:04:26;21.50;49.40
63013;DHT22;62113;45.624;11.700;2023-04-24T15:06:53;21.50;49.90
63013;DHT22;62113;45.624;11.700;2023-04-24T15:09:22;21.50;50.00
63013;DHT22;62113;45.624;11.700;2023-04-24T15:11:48;21.50;50.20
63013;DHT22;62113;45.624;11.700;2023-04-24T15:14:15;21.50;50.60
63013;DHT22;62113;45.624;11.700;2023-04-24T15:16:41;21.60;50.80
63013;DHT22;62113;45.624;11.700;2023-04-24T15:19:06;21.50;51.10
63013;DHT22;62113;45.624;11.700;2023-04-24T15:21:32;21.50;51.10
63013;DHT22;62113;45.624;11.700;2023-04-24T15:23:58;21.60;50.80
63013;DHT22;62113;45.624;11.700;2023-04-24T15:26:24;21.60;50.50
63013;DHT22;62113;45.624;11.700;2023-04-24T15:28:49;21.70;50.00